sensor_id;sensor_type;location;lat;lon;timestamp;temperature;humidity
28247;DHT22;66191;53.178;22.058;2023-06-10T00:01:57;18.90;71.00
28247;DHT22;66191;53.178;22.058;2023-06-10T00:04:29;18.80;71.30
28247;DHT22;66191;53.178;22.058;2023-06-10T00:07:00;18.80;71.40
28247;DHT22;66191;53.178;22.058;2023-06-10T00:09:32;18.80;71.50
28247;DHT22;66191;53.178;22.058;2023-06-10T00:12:05;18.70;71.50
28247;DHT22;66191;53.178;22.058;2023-06-10T00:14:39;18.70;72.90
28247;DHT22;66191;53.178;22.058;2023-06-10T00:17:10;18.70;71.70
28247;DHT22;66191;53.178;22.058;2023-06-10T00:19:43;18.70;71.80
28247;DHT22;66191;53.178;22.058;2023-06-10T00:22:15;18.60;72.00
28247;DHT22;66191;53.178;22.058;2023-06-10T00:24:46;18.60;72.10
28247;DHT22;66191;53.178;22.058;2023-06-10T00:27:21;18.60;72.30
28247;DHT22;66191;53.178;22.058;2023-06-10T00:29:55;18.60;72.40
28247;DHT22;66191;53.178;22.058;2023-06-10T00:32:26;18.60;72.30
28247;DHT22;66191;53.178;22.058;2023-06-10T00:34:57;18.60;72.50
28247;DHT22;66191;53.178;22.058;2023-06-10T00:37:30;18.50;72.60
28247;DHT22;66191;53.178;22.058;2023-06-10T00:40:03;18.50;72.80
28247;DHT22;66191;53.178;22.058;2023-06-10T00:42:40;18.40;73.00
28247;DHT22;66191;53.178;22.058;2023-06-10T00:45:11;18.40;74.00
28247;DHT22;66191;53.178;22.058;2023-06-10T00:47:42;18.40;73.50
28247;DHT22;66191;53.178;22.058;2023-06-10T00:50:13;18.30;73.60
28247;DHT22;66191;53.178;22.058;2023-06-10T00:52:45;18.30;73.80
28247;DHT22;66191;53.178;22.058;2023-06-10T00:55:19;18.30;73.90
28247;DHT22;66191;53.178;22.058;2023-06-10T00:57:53;18.20;74.10
28247;DHT22;66191;53.178;22.058;2023-06-10T01:00:26;18.20;74.40
28247;DHT22;66191;53.178;22.058;2023-06-10T01:02:57;18.10;74.40
28247;DHT22;66191;53.178;22.058;2023-06-10T01:05:28;18.10;75.50
28247;DHT22;66191;53.178;22.058;2023-06-10T01:08:03;18.00;74.50
28247;DHT22;66191;53.178;22.058;2023-06-10T01:10:48;18.00;75.00
28247;DHT22;66191;53.178;22.058;2023-06-10T01:13:26;17.90;75.50
28247;DHT22;66191;53.178;22.058;2023-06-10T01:16:00;17.90;75.40
28247;DHT22;66191;53.178;22.058;2023-06-10T01:18:32;17.80;75.30
28247;DHT22;66191;53.178;22.058;2023-06-10T01:21:03;17.80;75.20
28247;DHT22;66191;53.178;22.058;2023-06-10T01:23:38;17.80;75.50
28247;DHT22;66191;53.178;22.058;2023-06-10T01:26:11;17.70;75.50
28247;DHT22;66191;53.178;22.058;2023-06-10T01:28:48;17.70;75.50
28247;DHT22;66191;53.178;22.058;2023-06-10T01:31:30;17.60;75.70
28247;DHT22;66191;53.178;22.058;2023-06-10T01:34:08;17.70;76.00
28247;DHT22;66191;53.178;22.058;2023-06-10T01:36:40;17.60;75.60
28247;DHT22;66191;53.178;22.058;2023-06-10T01:39:16;17.50;75.50
28247;DHT22;66191;53.178;22.058;2023-06-10T01:41:49;17.50;75.60
28247;DHT22;66191;53.178;22.058;2023-06-10T01:44:20;17.50;75.40
28247;DHT22;66191;53.178;22.058;2023-06-10T01:46:53;17.50;75.40
28247;DHT22;66191;53.178;22.058;2023-06-10T01:49:24;17.50;75.40
28247;DHT22;66191;53.178;22.058;2023-06-10T01:51:56;17.40;75.40
28247;DHT22;66191;53.178;22.058;2023-06-10T01:54:30;17.40;75.50
28247;DHT22;66191;53.178;22.058;2023-06-10T01:57:03;17.40;76.20
28247;DHT22;66191;53.178;22.058;2023-06-10T01:59:34;17.30;75.40
28247;DHT22;66191;53.178;22.058;2023-06-10T02:02:06;17.30;75.60
28247;DHT22;66191;53.178;22.058;2023-06-10T02:04:38;17.30;75.80
28247;DHT22;66191;53.178;22.058;2023-06-10T02:07:10;17.20;75.80
28247;DHT22;66191;53.178;22.058;2023-06-10T02:09:43;17.20;75.90
28247;DHT22;66191;53.178;22.058;2023-06-10T02:12:15;17.10;76.10
28247;DHT22;66191;53.178;22.058;2023-06-10T02:14:46;17.10;76.00
28247;DHT22;66191;53.178;22.058;2023-06-10T02:17:18;17.10;76.00
28247;DHT22;66191;53.178;22.058;2023-06-10T02:19:51;17.10;76.10
28247;DHT22;66191;53.178;22.058;2023-06-10T02:22:24;17.10;76.10
28247;DHT22;66191;53.178;22.058;2023-06-10T02:24:58;17.10;76.10
28247;DHT22;66191;53.178;22.058;2023-06-10T02:27:31;17.00;75.80
28247;DHT22;66191;53.178;22.058;2023-06-10T02:30:04;17.00;75.90
28247;DHT22;66191;53.178;22.058;2023-06-10T02:32:38;17.00;76.50
28247;DHT22;66191;53.178;22.058;2023-06-10T02:35:09;17.00;75.80
28247;DHT22;66191;53.178;22.058;2023-06-10T02:37:43;17.00;75.60
28247;DHT22;66191;53.178;22.058;2023-06-10T02:40:17;16.90;75.40
28247;DHT22;66191;53.178;22.058;2023-06-10T02:42:48;16.90;75.50
28247;DHT22;66191;53.178;22.058;2023-06-10T02:45:20;16.90;75.20
28247;DHT22;66191;53.178;22.058;2023-06-10T02:47:52;16.80;75.20
28247;DHT22;66191;53.178;22.058;2023-06-10T02:50:23;16.90;75.20
28247;DHT22;66191;53.178;22.058;2023-06-10T02:53:13;16.80;75.00
28247;DHT22;66191;53.178;22.058;2023-06-10T02:55:53;16.80;75.10
28247;DHT22;66191;53.178;22.058;2023-06-10T02:58:24;16.80;75.00
28247;DHT22;66191;53.178;22.058;2023-06-10T03:00:56;16.80;75.00
28247;DHT22;66191;53.178;22.058;2023-06-10T03:03:32;16.80;75.00
28247;DHT22;66191;53.178;22.058;2023-06-10T03:06:10;16.80;75.00
28247;DHT22;66191;53.178;22.058;2023-06-10T03:08:42;16.80;74.80
28247;DHT22;66191;53.178;22.058;2023-06-10T03:11:19;16.80;74.80
28247;DHT22;66191;53.178;22.058;2023-06-10T03:13:51;16.80;74.70
28247;DHT22;66191;53.178;22.058;2023-06-10T03:16:27;16.80;74.60
28247;DHT22;66191;53.178;22.058;2023-06-10T03:19:00;16.80;74.50
28247;DHT22;66191;53.178;22.058;2023-06-10T03:21:35;16.70;74.40
28247;DHT22;66191;53.178;22.058;2023-06-10T03:24:06;16.70;74.20
28247;DHT22;66191;53.178;22.058;2023-06-10T03:26:41;16.70;74.10
28247;DHT22;66191;53.178;22.058;2023-06-10T03:29:13;16.70;74.00
28247;DHT22;66191;53.178;22.058;2023-06-10T03:31:44;16.80;73.70
28247;DHT22;66191;53.178;22.058;2023-06-10T03:34:17;16.80;74.30
28247;DHT22;66191;53.178;22.058;2023-06-10T03:36:48;16.70;73.30
28247;DHT22;66191;53.178;22.058;2023-06-10T03:39:19;16.70;73.00
28247;DHT22;66191;53.178;22.058;2023-06-10T03:41:53;16.70;73.10
28247;DHT22;66191;53.178;22.058;2023-06-10T03:44:27;16.70;73.10
28247;DHT22;66191;53.178;22.058;2023-06-10T03:46:58;16.70;73.10
28247;DHT22;66191;53.178;22.058;2023-06-10T03:49:31;16.80;72.80
28247;DHT22;66191;53.178;22.058;2023-06-10T03:52:02;16.80;72.70
28247;DHT22;66191;53.178;22.058;2023-06-10T03:54:34;16.80;72.60
28247;DHT22;66191;53.178;22.058;2023-06-10T03:57:08;16.80;72.50
28247;DHT22;66191;53.178;22.058;2023-06-10T03:59:40;16.90;72.20
28247;DHT22;66191;53.178;22.058;2023-06-10T04:02:11;16.90;72.30
28247;DHT22;66191;53.178;22.058;2023-06-10T04:04:44;17.00;71.90
28247;DHT22;66191;53.178;22.058;2023-06-10T04:07:15;17.00;71.80
28247;DHT22;66191;53.178;22.058;2023-06-10T04:09:48;17.10;71.60
28247;DHT22;66191;53.178;22.058;2023-06-10T04:12:21;17.20;71.50
28247;DHT22;66191;53.178;22.058;2023-06-10T04:14:53;17.20;71.00
28247;DHT22;66191;53.178;22.058;2023-06-10T04:17:24;17.30;70.80
28247;DHT22;66191;53.178;22.058;2023-06-10T04:19:56;17.30;70.50
28247;DHT22;66191;53.178;22.058;2023-06-10T04:22:28;17.40;70.00
28247;DHT22;66191;53.178;22.058;2023-06-10T04:25:00;17.40;69.90
28247;DHT22;66191;53.178;22.058;2023-06-10T04:27:34;17.40;69.70
28247;DHT22;66191;53.178;22.058;2023-06-10T04:30:07;17.50;69.40
28247;DHT22;66191;53.178;22.058;2023-06-10T04:32:39;17.60;69.20
28247;DHT22;66191;53.178;22.058;2023-06-10T04:35:16;17.80;69.10
28247;DHT22;66191;53.178;22.058;2023-06-10T04:37:48;17.90;68.00
28247;DHT22;66191;53.178;22.058;2023-06-10T04:40:20;17.90;67.90
28247;DHT22;66191;53.178;22.058;2023-06-10T04:42:54;18.10;67.70
28247;DHT22;66191;53.178;22.058;2023-06-10T04:45:26;18.10;67.40
28247;DHT22;66191;53.178;22.058;2023-06-10T04:47:58;18.20;66.70
28247;DHT22;66191;53.178;22.058;2023-06-10T04:50:30;18.10;66.70
28247;DHT22;66191;53.178;22.058;2023-06-10T04:53:01;18.10;66.70
28247;DHT22;66191;53.178;22.058;2023-06-10T04:55:33;18.10;66.50
28247;DHT22;66191;53.178;22.058;2023-06-10T04:58:06;18.10;66.60
28247;DHT22;66191;53.178;22.058;2023-06-10T05:00:38;18.10;66.50
28247;DHT22;66191;53.178;22.058;2023-06-10T05:03:09;18.10;65.80
28247;DHT22;66191;53.178;22.058;2023-06-10T05:05:41;18.10;66.30
28247;DHT22;66191;53.178;22.058;2023-06-10T05:08:12;18.10;66.20
28247;DHT22;66191;53.178;22.058;2023-06-10T05:10:44;18.10;66.00
28247;DHT22;66191;53.178;22.058;2023-06-10T05:13:17;18.20;66.20
28247;DHT22;66191;53.178;22.058;2023-06-10T05:15:49;18.20;65.50
28247;DHT22;66191;53.178;22.058;2023-06-10T05:18:20;18.20;65.70
28247;DHT22;66191;53.178;22.058;2023-06-10T05:20:51;18.30;65.50
28247;DHT22;66191;53.178;22.058;2023-06-10T05:23:22;18.10;65.30
28247;DHT22;66191;53.178;22.058;2023-06-10T05:25:53;18.10;65.60
28247;DHT22;66191;53.178;22.058;2023-06-10T05:28:27;18.10;66.10
28247;DHT22;66191;53.178;22.058;2023-06-10T05:30:58;18.10;66.00
28247;DHT22;66191;53.178;22.058;2023-06-10T05:33:29;18.10;65.80
28247;DHT22;66191;53.178;22.058;2023-06-10T05:36:00;18.20;66.00
28247;DHT22;66191;53.178;22.058;2023-06-10T05:38:31;18.30;65.60
28247;DHT22;66191;53.178;22.058;2023-06-10T05:41:02;18.30;65.40
28247;DHT22;66191;53.178;22.058;2023-06-10T05:43:37;18.30;65.60
28247;DHT22;66191;53.178;22.058;2023-06-10T05:46:10;18.20;65.50
28247;DHT22;66191;53.178;22.058;2023-06-10T05:48:41;18.20;66.00
28247;DHT22;66191;53.178;22.058;2023-06-10T05:51:12;18.40;66.10
28247;DHT22;66191;53.178;22.058;2023-06-10T05:53:43;18.40;65.70
28247;DHT22;66191;53.178;22.058;2023-06-10T05:56:15;18.50;65.60
28247;DHT22;66191;53.178;22.058;2023-06-10T05:58:48;18.50;65.50
28247;DHT22;66191;53.178;22.058;2023-06-10T06:01:20;18.50;65.30
28247;DHT22;66191;53.178;22.058;2023-06-10T06:03:51;18.60;65.20
28247;DHT22;66191;53.178;22.058;2023-06-10T06:06:23;18.60;65.20
28247;DHT22;66191;53.178;22.058;2023-06-10T06:08:54;18.60;65.30
28247;DHT22;66191;53.178;22.058;2023-06-10T06:11:26;18.60;65.40
28247;DHT22;66191;53.178;22.058;2023-06-10T06:13:59;18.60;65.30
28247;DHT22;66191;53.178;22.058;2023-06-10T06:16:31;18.60;65.20
28247;DHT22;66191;53.178;22.058;2023-06-10T06:19:02;18.70;65.50
28247;DHT22;66191;53.178;22.058;2023-06-10T06:21:33;18.60;65.30
28247;DHT22;66191;53.178;22.058;2023-06-10T06:24:05;18.60;65.40
28247;DHT22;66191;53.178;22.058;2023-06-10T06:26:37;18.70;65.80
28247;DHT22;66191;53.178;22.058;2023-06-10T06:29:11;18.80;66.00
28247;DHT22;66191;53.178;22.058;2023-06-10T06:31:42;18.80;65.30
28247;DHT22;66191;53.178;22.058;2023-06-10T06:34:14;18.90;65.60
28247;DHT22;66191;53.178;22.058;2023-06-10T06:36:46;18.70;64.80
28247;DHT22;66191;53.178;22.058;2023-06-10T06:39:18;18.70;65.50
28247;DHT22;66191;53.178;22.058;2023-06-10T06:41:50;18.80;65.80
28247;DHT22;66191;53.178;22.058;2023-06-10T06:44:43;18.90;65.30
28247;DHT22;66191;53.178;22.058;2023-06-10T06:47:14;19.00;65.80
28247;DHT22;66191;53.178;22.058;2023-06-10T06:49:48;19.00;65.30
28247;DHT22;66191;53.178;22.058;2023-06-10T06:52:19;19.00;65.30
28247;DHT22;66191;53.178;22.058;2023-06-10T06:54:50;19.00;65.50
28247;DHT22;66191;53.178;22.058;2023-06-10T06:57:22;19.10;65.60
28247;DHT22;66191;53.178;22.058;2023-06-10T06:59:56;19.10;65.90
28247;DHT22;66191;53.178;22.058;2023-06-10T07:02:30;19.20;65.90
28247;DHT22;66191;53.178;22.058;2023-06-10T07:05:02;19.30;65.50
28247;DHT22;66191;53.178;22.058;2023-06-10T07:07:36;19.30;65.40
28247;DHT22;66191;53.178;22.058;2023-06-10T07:10:08;19.30;65.30
28247;DHT22;66191;53.178;22.058;2023-06-10T07:12:39;19.30;65.50
28247;DHT22;66191;53.178;22.058;2023-06-10T07:15:13;19.20;65.90
28247;DHT22;66191;53.178;22.058;2023-06-10T07:17:45;19.30;66.10
28247;DHT22;66191;53.178;22.058;2023-06-10T07:20:16;19.20;65.60
28247;DHT22;66191;53.178;22.058;2023-06-10T07:22:47;19.20;65.70
28247;DHT22;66191;53.178;22.058;2023-06-10T07:25:18;19.30;66.30
28247;DHT22;66191;53.178;22.058;2023-06-10T07:27:49;19.30;66.10
28247;DHT22;66191;53.178;22.058;2023-06-10T07:30:23;19.30;65.90
28247;DHT22;66191;53.178;22.058;2023-06-10T07:32:55;19.30;65.60
28247;DHT22;66191;53.178;22.058;2023-06-10T07:35:26;19.30;66.10
28247;DHT22;66191;53.178;22.058;2023-06-10T07:37:58;19.20;66.10
28247;DHT22;66191;53.178;22.058;2023-06-10T07:40:29;19.30;66.10
28247;DHT22;66191;53.178;22.058;2023-06-10T07:43:02;19.30;66.20
28247;DHT22;66191;53.178;22.058;2023-06-10T07:45:36;19.30;66.40
28247;DHT22;66191;53.178;22.058;2023-06-10T07:48:07;19.30;66.70
28247;DHT22;66191;53.178;22.058;2023-06-10T07:50:39;19.40;66.80
28247;DHT22;66191;53.178;22.058;2023-06-10T07:53:10;19.40;66.50
28247;DHT22;66191;53.178;22.058;2023-06-10T07:55:41;19.40;67.00
28247;DHT22;66191;53.178;22.058;2023-06-10T07:58:12;19.50;66.90
28247;DHT22;66191;53.178;22.058;2023-06-10T08:00:46;19.50;67.20
28247;DHT22;66191;53.178;22.058;2023-06-10T08:03:18;19.60;67.10
28247;DHT22;66191;53.178;22.058;2023-06-10T08:05:50;19.70;66.90
28247;DHT22;66191;53.178;22.058;2023-06-10T08:08:21;19.80;66.80
28247;DHT22;66191;53.178;22.058;2023-06-10T08:10:52;19.80;67.10
28247;DHT22;66191;53.178;22.058;2023-06-10T08:13:23;19.90;66.40
28247;DHT22;66191;53.178;22.058;2023-06-10T08:15:57;19.90;66.80
28247;DHT22;66191;53.178;22.058;2023-06-10T08:18:28;19.90;67.10
28247;DHT22;66191;53.178;22.058;2023-06-10T08:20:59;20.00;66.80
28247;DHT22;66191;53.178;22.058;2023-06-10T08:23:30;20.00;67.40
28247;DHT22;66191;53.178;22.058;2023-06-10T08:26:01;20.00;66.70
28247;DHT22;66191;53.178;22.058;2023-06-10T08:28:33;20.10;67.10
28247;DHT22;66191;53.178;22.058;2023-06-10T08:31:06;20.10;66.50
28247;DHT22;66191;53.178;22.058;2023-06-10T08:33:38;20.20;66.90
28247;DHT22;66191;53.178;22.058;2023-06-10T08:36:09;20.30;67.00
28247;DHT22;66191;53.178;22.058;2023-06-10T08:38:40;20.20;66.50
28247;DHT22;66191;53.178;22.058;2023-06-10T08:41:13;20.30;66.80
28247;DHT22;66191;53.178;22.058;2023-06-10T08:43:50;20.30;66.70
28247;DHT22;66191;53.178;22.058;2023-06-10T08:46:24;20.40;67.10
28247;DHT22;66191;53.178;22.058;2023-06-10T08:49:00;20.40;67.20
28247;DHT22;66191;53.178;22.058;2023-06-10T08:51:35;20.40;66.50
28247;DHT22;66191;53.178;22.058;2023-06-10T08:54:14;20.40;66.20
28247;DHT22;66191;53.178;22.058;2023-06-10T08:56:49;20.40;67.30
28247;DHT22;66191;53.178;22.058;2023-06-10T08:59:21;20.50;66.80
28247;DHT22;66191;53.178;22.058;2023-06-10T09:01:55;20.50;66.50
28247;DHT22;66191;53.178;22.058;2023-06-10T09:04:27;20.50;66.60
28247;DHT22;66191;53.178;22.058;2023-06-10T09:06:59;20.60;66.40
28247;DHT22;66191;53.178;22.058;2023-06-10T09:09:31;20.60;66.60
28247;DHT22;66191;53.178;22.058;2023-06-10T09:12:03;20.70;66.90
28247;DHT22;66191;53.178;22.058;2023-06-10T09:14:34;20.70;66.80
28247;DHT22;66191;53.178;22.058;2023-06-10T09:17:09;20.70;66.30
28247;DHT22;66191;53.178;22.058;2023-06-10T09:19:40;20.80;66.20
28247;DHT22;66191;53.178;22.058;2023-06-10T09:22:12;20.80;66.30
28247;DHT22;66191;53.178;22.058;2023-06-10T09:24:43;20.90;66.50
28247;DHT22;66191;53.178;22.058;2023-06-10T09:27:14;20.90;66.20
28247;DHT22;66191;53.178;22.058;2023-06-10T09:29:47;20.90;65.90
28247;DHT22;66191;53.178;22.058;2023-06-10T09:32:21;20.90;66.70
28247;DHT22;66191;53.178;22.058;2023-06-10T09:34:53;20.90;66.40
28247;DHT22;66191;53.178;22.058;2023-06-10T09:37:24;20.90;66.20
28247;DHT22;66191;53.178;22.058;2023-06-10T09:40:04;21.00;66.30
28247;DHT22;66191;53.178;22.058;2023-06-10T09:42:38;21.00;66.30
28247;DHT22;66191;53.178;22.058;2023-06-10T09:45:10;21.10;65.80
28247;DHT22;66191;53.178;22.058;2023-06-10T09:47:46;21.10;65.90
28247;DHT22;66191;53.178;22.058;2023-06-10T09:50:18;21.10;65.90
28247;DHT22;66191;53.178;22.058;2023-06-10T09:52:49;21.10;66.10
28247;DHT22;66191;53.178;22.058;2023-06-10T09:55:22;21.10;65.70
28247;DHT22;66191;53.178;22.058;2023-06-10T09:57:54;21.20;65.50
28247;DHT22;66191;53.178;22.058;2023-06-10T10:00:26;21.20;65.90
28247;DHT22;66191;53.178;22.058;2023-06-10T10:03:00;21.30;65.70
28247;DHT22;66191;53.178;22.058;2023-06-10T10:05:32;21.20;65.30
28247;DHT22;66191;53.178;22.058;2023-06-10T10:08:04;21.30;65.20
28247;DHT22;66191;53.178;22.058;2023-06-10T10:10:36;21.40;66.10
28247;DHT22;66191;53.178;22.058;2023-06-10T10:13:07;21.50;65.50
28247;DHT22;66191;53.178;22.058;2023-06-10T10:15:39;21.50;65.10
28247;DHT22;66191;53.178;22.058;2023-06-10T10:18:17;21.60;65.20
28247;DHT22;66191;53.178;22.058;2023-06-10T10:20:53;21.70;64.30
28247;DHT22;66191;53.178;22.058;2023-06-10T10:23:31;21.70;64.10
28247;DHT22;66191;53.178;22.058;2023-06-10T10:26:09;21.80;64.40
28247;DHT22;66191;53.178;22.058;2023-06-10T10:28:45;21.80;64.10
28247;DHT22;66191;53.178;22.058;2023-06-10T10:31:19;21.80;63.70
28247;DHT22;66191;53.178;22.058;2023-06-10T10:33:58;21.80;63.50
28247;DHT22;66191;53.178;22.058;2023-06-10T10:36:30;21.90;63.20
28247;DHT22;66191;53.178;22.058;2023-06-10T10:39:03;21.90;63.40
28247;DHT22;66191;53.178;22.058;2023-06-10T10:41:37;21.90;63.20
28247;DHT22;66191;53.178;22.058;2023-06-10T10:44:09;22.00;63.20
28247;DHT22;66191;53.178;22.058;2023-06-10T10:46:45;22.00;63.60
28247;DHT22;66191;53.178;22.058;2023-06-10T10:49:25;22.00;62.90
28247;DHT22;66191;53.178;22.058;2023-06-10T10:51:59;22.10;62.80
28247;DHT22;66191;53.178;22.058;2023-06-10T10:54:34;22.20;62.90
28247;DHT22;66191;53.178;22.058;2023-06-10T10:57:14;22.20;62.80
28247;DHT22;66191;53.178;22.058;2023-06-10T10:59:52;22.30;62.90
28247;DHT22;66191;53.178;22.058;2023-06-10T11:02:42;22.40;62.10
28247;DHT22;66191;53.178;22.058;2023-06-10T11:05:17;22.40;61.60
28247;DHT22;66191;53.178;22.058;2023-06-10T11:07:53;22.40;61.60
28247;DHT22;66191;53.178;22.058;2023-06-10T11:10:30;22.40;62.10
28247;DHT22;66191;53.178;22.058;2023-06-10T11:13:06;22.40;62.40
28247;DHT22;66191;53.178;22.058;2023-06-10T11:15:44;22.50;62.00
28247;DHT22;66191;53.178;22.058;2023-06-10T11:18:22;22.50;62.10
28247;DHT22;66191;53.178;22.058;2023-06-10T11:20:58;22.60;61.90
28247;DHT22;66191;53.178;22.058;2023-06-10T11:23:40;22.60;61.60
28247;DHT22;66191;53.178;22.058;2023-06-10T11:26:17;22.70;61.80
28247;DHT22;66191;53.178;22.058;2023-06-10T11:32:00;22.70;61.30
28247;DHT22;66191;53.178;22.058;2023-06-10T11:34:31;22.70;61.30
28247;DHT22;66191;53.178;22.058;2023-06-10T11:37:06;22.80;62.10
28247;DHT22;66191;53.178;22.058;2023-06-10T11:39:38;22.90;61.10
28247;DHT22;66191;53.178;22.058;2023-06-10T11:42:09;23.00;61.00
28247;DHT22;66191;53.178;22.058;2023-06-10T11:44:48;23.00;60.40
28247;DHT22;66191;53.178;22.058;2023-06-10T11:47:22;22.90;60.90
28247;DHT22;66191;53.178;22.058;2023-06-10T11:49:57;23.00;61.20
28247;DHT22;66191;53.178;22.058;2023-06-10T11:52:33;23.10;60.60
28247;DHT22;66191;53.178;22.058;2023-06-10T11:55:16;23.10;60.30
28247;DHT22;66191;53.178;22.058;2023-06-10T11:57:58;23.10;60.40
28247;DHT22;66191;53.178;22.058;2023-06-10T12:00:32;23.10;60.10
28247;DHT22;66191;53.178;22.058;2023-06-10T12:03:06;23.10;60.20
28247;DHT22;66191;53.178;22.058;2023-06-10T12:05:38;23.20;60.40
28247;DHT22;66191;53.178;22.058;2023-06-10T12:08:13;23.20;59.80
28247;DHT22;66191;53.178;22.058;2023-06-10T12:10:45;23.10;60.20
28247;DHT22;66191;53.178;22.058;2023-06-10T12:13:16;23.10;59.80
28247;DHT22;66191;53.178;22.058;2023-06-10T12:15:48;23.10;59.70
28247;DHT22;66191;53.178;22.058;2023-06-10T12:18:21;23.20;60.00
28247;DHT22;66191;53.178;22.058;2023-06-10T12:20:55;23.20;59.40
28247;DHT22;66191;53.178;22.058;2023-06-10T12:23:31;23.30;59.40
28247;DHT22;66191;53.178;22.058;2023-06-10T12:26:03;23.30;59.40
28247;DHT22;66191;53.178;22.058;2023-06-10T12:28:34;23.40;59.00
28247;DHT22;66191;53.178;22.058;2023-06-10T12:31:07;23.50;58.50
28247;DHT22;66191;53.178;22.058;2023-06-10T12:33:38;23.50;58.80
28247;DHT22;66191;53.178;22.058;2023-06-10T12:36:16;23.40;58.70
28247;DHT22;66191;53.178;22.058;2023-06-10T12:38:51;23.40;58.20
28247;DHT22;66191;53.178;22.058;2023-06-10T12:41:23;23.40;57.60
28247;DHT22;66191;53.178;22.058;2023-06-10T12:43:55;23.50;58.00
28247;DHT22;66191;53.178;22.058;2023-06-10T12:46:36;23.60;58.00
28247;DHT22;66191;53.178;22.058;2023-06-10T12:49:08;23.60;57.40
28247;DHT22;66191;53.178;22.058;2023-06-10T12:51:39;23.60;57.90
28247;DHT22;66191;53.178;22.058;2023-06-10T12:54:13;23.60;57.80
28247;DHT22;66191;53.178;22.058;2023-06-10T12:56:47;23.60;57.60
28247;DHT22;66191;53.178;22.058;2023-06-10T12:59:18;23.60;57.30
28247;DHT22;66191;53.178;22.058;2023-06-10T13:01:50;23.50;57.20
28247;DHT22;66191;53.178;22.058;2023-06-10T13:04:22;23.60;57.40
28247;DHT22;66191;53.178;22.058;2023-06-10T13:06:54;23.60;56.80
28247;DHT22;66191;53.178;22.058;2023-06-10T13:09:27;23.60;56.30
28247;DHT22;66191;53.178;22.058;2023-06-10T13:11:59;23.70;56.50
28247;DHT22;66191;53.178;22.058;2023-06-10T13:14:30;23.70;56.30
28247;DHT22;66191;53.178;22.058;2023-06-10T13:17:02;23.80;56.50
28247;DHT22;66191;53.178;22.058;2023-06-10T13:19:34;23.80;56.00
28247;DHT22;66191;53.178;22.058;2023-06-10T13:22:06;23.80;55.10
28247;DHT22;66191;53.178;22.058;2023-06-10T13:24:42;23.70;55.40
28247;DHT22;66191;53.178;22.058;2023-06-10T13:27:13;23.70;55.40
28247;DHT22;66191;53.178;22.058;2023-06-10T13:29:44;23.80;56.10
28247;DHT22;66191;53.178;22.058;2023-06-10T13:32:16;23.80;55.60
28247;DHT22;66191;53.178;22.058;2023-06-10T13:34:47;23.90;54.90
28247;DHT22;66191;53.178;22.058;2023-06-10T13:37:18;23.90;54.40
28247;DHT22;66191;53.178;22.058;2023-06-10T13:39:52;23.90;54.60
28247;DHT22;66191;53.178;22.058;2023-06-10T13:42:24;23.90;55.10
28247;DHT22;66191;53.178;22.058;2023-06-10T13:44:56;24.00;55.10
28247;DHT22;66191;53.178;22.058;2023-06-10T13:47:28;24.00;54.80
28247;DHT22;66191;53.178;22.058;2023-06-10T13:49:59;24.10;54.20
28247;DHT22;66191;53.178;22.058;2023-06-10T13:52:30;24.10;53.50
28247;DHT22;66191;53.178;22.058;2023-06-10T13:55:05;24.00;53.70
28247;DHT22;66191;53.178;22.058;2023-06-10T13:57:37;24.00;53.40
28247;DHT22;66191;53.178;22.058;2023-06-10T14:00:09;24.00;53.70
28247;DHT22;66191;53.178;22.058;2023-06-10T14:02:42;24.10;53.70
28247;DHT22;66191;53.178;22.058;2023-06-10T14:05:15;24.10;53.70
28247;DHT22;66191;53.178;22.058;2023-06-10T14:07:46;24.10;53.70
28247;DHT22;66191;53.178;22.058;2023-06-10T14:10:20;24.10;54.00
28247;DHT22;66191;53.178;22.058;2023-06-10T14:12:52;24.10;53.30
28247;DHT22;66191;53.178;22.058;2023-06-10T14:15:23;24.00;53.40
28247;DHT22;66191;53.178;22.058;2023-06-10T14:17:55;23.90;53.20
28247;DHT22;66191;53.178;22.058;2023-06-10T14:20:26;23.90;53.10
28247;DHT22;66191;53.178;22.058;2023-06-10T14:22:59;23.90;52.60
28247;DHT22;66191;53.178;22.058;2023-06-10T14:25:33;23.80;52.60
28247;DHT22;66191;53.178;22.058;2023-06-10T14:28:04;23.90;52.90
28247;DHT22;66191;53.178;22.058;2023-06-10T14:30:35;23.80;53.30
28247;DHT22;66191;53.178;22.058;2023-06-10T14:33:07;23.70;53.40
28247;DHT22;66191;53.178;22.058;2023-06-10T14:35:38;23.60;53.30
28247;DHT22;66191;53.178;22.058;2023-06-10T14:38:11;23.50;53.50
28247;DHT22;66191;53.178;22.058;2023-06-10T14:40:45;23.50;53.50
28247;DHT22;66191;53.178;22.058;2023-06-10T14:43:16;23.50;53.50
28247;DHT22;66191;53.178;22.058;2023-06-10T14:45:49;23.60;53.40
28247;DHT22;66191;53.178;22.058;2023-06-10T14:48:22;23.60;53.30
28247;DHT22;66191;53.178;22.058;2023-06-10T14:50:53;23.70;52.90
28247;DHT22;66191;53.178;22.058;2023-06-10T14:53:24;23.70;52.80
28247;DHT22;66191;53.178;22.058;2023-06-10T14:55:58;23.70;53.00
28247;DHT22;66191;53.178;22.058;2023-06-10T14:58:30;23.70;52.60
28247;DHT22;66191;53.178;22.058;2023-06-10T15:01:01;23.60;52.70
28247;DHT22;66191;53.178;22.058;2023-06-10T15:03:32;23.60;53.00
28247;DHT22;66191;53.178;22.058;2023-06-10T15:06:03;23.60;53.00
28247;DHT22;66191;53.178;22.058;2023-06-10T15:08:35;23.60;52.50
28247;DHT22;66191;53.178;22.058;2023-06-10T15:11:08;23.50;52.60
28247;DHT22;66191;53.178;22.058;2023-06-10T15:13:40;23.50;52.50
28247;DHT22;66191;53.178;22.058;2023-06-10T15:16:11;23.50;52.60
28247;DHT22;66191;53.178;22.058;2023-06-10T15:18:43;23.60;52.70
28247;DHT22;66191;53.178;22.058;2023-06-10T15:21:14;23.50;52.60
28247;DHT22;66191;53.178;22.058;2023-06-10T15:23:45;23.60;52.40
28247;DHT22;66191;53.178;22.058;2023-06-10T15:26:19;23.50;51.70
28247;DHT22;66191;53.178;22.058;2023-06-10T15:28:50;23.50;52.20
28247;DHT22;66191;53.178;22.058;2023-06-10T15:31:23;23.50;51.50
28247;DHT22;66191;53.178;22.058;2023-06-10T15:33:54;23.60;51.00
28247;DHT22;66191;53.178;22.058;2023-06-10T15:36:25;23.60;51.60
28247;DHT22;66191;53.178;22.058;2023-06-10T15:39:01;23.60;52.40
28247;DHT22;66191;53.178;22.058;2023-06-10T15:41:37;23.60;51.00
28247;DHT22;66191;53.178;22.058;2023-06-10T15:44:08;23.50;51.10
28247;DHT22;66191;53.178;22.058;2023-06-10T15:46:39;23.50;51.20
28247;DHT22;66191;53.178;22.058;2023-06-10T15:49:10;23.50;51.00
28247;DHT22;66191;53.178;22.058;2023-06-10T15:51:41;23.50;51.00
28247;DHT22;66191;53.178;22.058;2023-06-10T15:54:18;23.50;51.20